createdAt,value
2018-12-16T00:01:14.077Z,100352.21
2018-12-16T00:03:43.175Z,100348.23
2018-12-16T00:06:12.391Z,100336.98
2018-12-16T00:08:42.711Z,100337.99
2018-12-16T00:11:12.040Z,100333.36
2018-12-16T00:13:41.199Z,100326.62
2018-12-16T00:16:10.380Z,100321.22
2018-12-16T00:18:39.511Z,100320.54
2018-12-16T00:21:09.028Z,100322.98
2018-12-16T00:23:38.277Z,100322.89
2018-12-16T00:26:07.403Z,100327.86
2018-12-16T00:28:36.468Z,100331.55
2018-12-16T00:31:05.805Z,100339.46
2018-12-16T00:33:35.207Z,100341.03
2018-12-16T00:36:04.471Z,100348.48
2018-12-16T00:38:33.915Z,100350.52
2018-12-16T00:41:03.285Z,100363.06
2018-12-16T00:43:32.388Z,100364.77
2018-12-16T00:46:01.621Z,100370.81
2018-12-16T00:48:30.990Z,100364.34
2018-12-16T00:51:00.142Z,100359.54
2018-12-16T00:53:29.387Z,100368.55
2018-12-16T00:55:58.683Z,100370.81
2018-12-16T00:58:28.004Z,100366.98
2018-12-16T01:00:57.286Z,100366.60
2018-12-16T01:03:26.646Z,100368.94
2018-12-16T01:05:55.899Z,100368.48
2018-12-16T01:08:24.963Z,100364.86
2018-12-16T01:10:54.207Z,100361.88
2018-12-16T01:13:23.445Z,100354.23
2018-12-16T01:15:52.663Z,100351.45
2018-12-16T01:18:21.900Z,100348.58
2018-12-16T01:20:51.189Z,100342.44
2018-12-16T01:23:20.411Z,100335.67
2018-12-16T01:25:49.759Z,100335.47
2018-12-16T01:28:19.052Z,100321.22
2018-12-16T01:30:48.192Z,100313.33
2018-12-16T01:33:17.504Z,100303.31
2018-12-16T01:35:46.776Z,100298.05
2018-12-16T01:38:16.135Z,100294.00
2018-12-16T01:40:45.367Z,100288.88
2018-12-16T01:43:14.620Z,100283.95
2018-12-16T01:45:43.987Z,100272.55
2018-12-16T01:48:13.119Z,100268.52
2018-12-16T01:50:42.231Z,100270.61
2018-12-16T01:53:11.538Z,100267.61
2018-12-16T01:55:40.711Z,100263.69
2018-12-16T01:58:09.968Z,100268.52
2018-12-16T02:00:39.328Z,100263.23
2018-12-16T02:03:08.631Z,100262.52
2018-12-16T02:05:37.838Z,100265.96
2018-12-16T02:08:06.983Z,100264.20
2018-12-16T02:10:36.172Z,100255.11
2018-12-16T02:13:05.480Z,100248.04
2018-12-16T02:15:34.660Z,100251.64
2018-12-16T02:18:03.872Z,100255.82
2018-12-16T02:20:33.041Z,100260.22
2018-12-16T02:23:02.198Z,100246.67
2018-12-16T02:25:31.543Z,100233.20
2018-12-16T02:28:00.747Z,100229.94
2018-12-16T02:30:29.993Z,100225.95
2018-12-16T02:32:59.460Z,100218.99
2018-12-16T02:35:28.549Z,100207.29
2018-12-16T02:37:57.978Z,100205.59
2018-12-16T02:40:27.268Z,100190.56
2018-12-16T02:42:56.476Z,100181.80
2018-12-16T02:45:25.995Z,100175.02
2018-12-16T02:47:55.207Z,100172.93
2018-12-16T02:50:24.538Z,100166.25
2018-12-16T02:52:53.641Z,100163.49
2018-12-16T02:55:22.918Z,100154.48
2018-12-16T02:57:52.152Z,100157.09
2018-12-16T03:00:21.457Z,100153.31
2018-12-16T03:02:50.603Z,100151.96
2018-12-16T03:05:19.896Z,100148.01
2018-12-16T03:07:49.183Z,100133.70
2018-12-16T03:10:18.305Z,100132.88
2018-12-16T03:12:47.703Z,100127.09
2018-12-16T03:15:16.860Z,100120.23
2018-12-16T03:17:46.299Z,100119.31
2018-12-16T03:20:15.609Z,100114.34
2018-12-16T03:22:44.737Z,100105.32
2018-12-16T03:25:13.809Z,100102.99
2018-12-16T03:27:43.041Z,100095.16
2018-12-16T03:30:12.133Z,100082.34
2018-12-16T03:32:41.359Z,100085.13
2018-12-16T03:35:10.671Z,100082.76
2018-12-16T03:37:40.268Z,100083.08
2018-12-16T03:40:09.876Z,100074.41
2018-12-16T03:42:39.068Z,100075.40
2018-12-16T03:45:08.158Z,100079.38
2018-12-16T03:47:37.577Z,100084.46
2018-12-16T03:50:06.905Z,100077.27
2018-12-16T03:52:36.515Z,100080.16
2018-12-16T03:55:05.609Z,100058.86
2018-12-16T03:57:35.540Z,100058.85
2018-12-16T04:00:04.893Z,100063.38
2018-12-16T04:02:34.065Z,100062.06
2018-12-16T04:05:03.282Z,100057.30
2018-12-16T04:07:32.502Z,100069.64
2018-12-16T04:10:01.992Z,100053.86
2018-12-16T04:12:31.189Z,100044.47
2018-12-16T04:15:00.377Z,100040.09
2018-12-16T04:17:29.818Z,100041.95
2018-12-16T04:19:59.215Z,100027.37
2018-12-16T04:22:28.603Z,100033.79
2018-12-16T04:24:58.158Z,100014.20
2018-12-16T04:27:27.502Z,100013.80
2018-12-16T04:29:56.605Z,100009.47
2018-12-16T04:32:25.951Z,100011.36
2018-12-16T04:34:55.412Z,100006.02
2018-12-16T04:37:24.624Z,100002.95
2018-12-16T04:39:53.811Z,100006.59
2018-12-16T04:42:23.012Z,100002.72
2018-12-16T04:44:52.180Z,100006.87
2018-12-16T04:47:21.298Z,100009.49
2018-12-16T04:49:50.472Z,100010.41
2018-12-16T04:52:19.610Z,100009.27
2018-12-16T04:54:48.755Z,100011.19
2018-12-16T04:57:17.884Z,100008.77
2018-12-16T04:59:47.145Z,100013.92
2018-12-16T05:02:16.911Z,100016.80
2018-12-16T05:04:46.188Z,100013.02
2018-12-16T05:07:15.577Z,100020.20
2018-12-16T05:09:44.983Z,100023.56
2018-12-16T05:12:14.389Z,100023.17
2018-12-16T05:14:43.863Z,100018.36
2018-12-16T05:17:13.224Z,100025.50
2018-12-16T05:19:42.366Z,100030.95
2018-12-16T05:22:11.622Z,100021.95
2018-12-16T05:24:41.211Z,100018.31
2018-12-16T05:27:10.779Z,100025.28
2018-12-16T05:29:39.977Z,100020.58
2018-12-16T05:32:09.119Z,100013.20
2018-12-16T05:34:38.480Z,100017.33
2018-12-16T05:37:07.883Z,100026.73
2018-12-16T05:39:37.107Z,100011.72
2018-12-16T05:42:06.318Z,100016.66
2018-12-16T05:44:35.614Z,100010.66
2018-12-16T05:47:05.046Z,100007.27
2018-12-16T05:49:34.335Z,100018.70
2018-12-16T05:52:03.513Z,100020.59
2018-12-16T05:54:32.815Z,100024.18
2018-12-16T05:57:02.015Z,100017.59
2018-12-16T05:59:31.313Z,100018.02
2018-12-16T06:02:00.488Z,100022.25
2018-12-16T06:04:29.742Z,100025.12
2018-12-16T06:06:59.011Z,100034.29
2018-12-16T06:09:28.428Z,100027.63
2018-12-16T06:11:57.720Z,100018.99
2018-12-16T06:14:26.934Z,100009.36
2018-12-16T06:16:56.413Z,100007.42
2018-12-16T06:19:25.760Z,100012.75
2018-12-16T06:21:55.135Z,100010.02
2018-12-16T06:24:24.691Z,100000.10
2018-12-16T06:26:53.831Z,99994.87
2018-12-16T06:29:23.240Z,99998.94
2018-12-16T06:31:52.385Z,100021.26
2018-12-16T06:34:21.524Z,100016.56
2018-12-16T06:36:50.948Z,100009.50
2018-12-16T06:39:20.223Z,100017.00
2018-12-16T06:41:49.375Z,100019.93
2018-12-16T06:44:18.896Z,100024.65
2018-12-16T06:46:48.011Z,100016.17
2018-12-16T06:49:17.103Z,100006.95
2018-12-16T06:51:46.416Z,100008.98
2018-12-16T06:54:15.663Z,100007.78
2018-12-16T06:56:44.948Z,100007.40
2018-12-16T06:59:14.065Z,100012.69
2018-12-16T07:01:43.304Z,100001.39
2018-12-16T07:04:12.692Z,100005.20
2018-12-16T07:06:42.120Z,100000.52
2018-12-16T07:09:11.303Z,99991.55
2018-12-16T07:11:40.688Z,100001.05
2018-12-16T07:14:10.129Z,99999.58
2018-12-16T07:16:40.627Z,99997.57
2018-12-16T07:19:10.077Z,99999.03
2018-12-16T07:21:39.715Z,100004.97
2018-12-16T07:24:09.590Z,100001.46
2018-12-16T07:26:39.219Z,100004.92
2018-12-16T07:29:08.476Z,100005.00
2018-12-16T07:31:37.673Z,100008.27
2018-12-16T07:34:06.892Z,100012.28
2018-12-16T07:36:36.387Z,100020.80
2018-12-16T07:39:07.263Z,100018.31
2018-12-16T07:41:49.734Z,100022.36
2018-12-16T07:44:19.040Z,100031.77
2018-12-16T07:46:48.344Z,100027.45
2018-12-16T07:49:17.687Z,100034.09
2018-12-16T07:51:46.698Z,100034.05
2018-12-16T07:54:16.227Z,100030.02
2018-12-16T07:56:45.720Z,100034.33
2018-12-16T07:59:15.012Z,100035.41
2018-12-16T08:01:44.287Z,100041.72
2018-12-16T08:04:13.536Z,100037.47
2018-12-16T08:06:42.772Z,100040.18
2018-12-16T08:09:12.076Z,100036.73
2018-12-16T08:11:41.372Z,100045.87
2018-12-16T08:14:10.825Z,100056.00
2018-12-16T08:16:40.360Z,100056.64
2018-12-16T08:19:09.742Z,100054.42
2018-12-16T08:21:39.021Z,100057.02
2018-12-16T08:24:08.370Z,100057.27
2018-12-16T08:26:37.655Z,100060.67
2018-12-16T08:29:06.882Z,100060.91
2018-12-16T08:31:36.194Z,100066.48
2018-12-16T08:34:05.343Z,100057.47
2018-12-16T08:36:34.758Z,100068.19
2018-12-16T08:39:04.868Z,100064.01
2018-12-16T08:41:34.283Z,100072.73
2018-12-16T08:44:03.647Z,100072.30
2018-12-16T08:46:32.900Z,100074.05
2018-12-16T08:49:02.173Z,100072.13
2018-12-16T08:51:31.364Z,100071.73
2018-12-16T08:54:00.704Z,100067.11
2018-12-16T08:56:29.972Z,100076.62
2018-12-16T08:58:59.315Z,100076.80
2018-12-16T09:01:29.348Z,100066.40
2018-12-16T09:03:59.170Z,100072.22
2018-12-16T09:06:28.515Z,100077.19
2018-12-16T09:08:58.284Z,100090.72
2018-12-16T09:11:27.532Z,100084.63
2018-12-16T09:13:56.825Z,100079.28
2018-12-16T09:16:26.017Z,100079.36
2018-12-16T09:18:55.337Z,100086.25
2018-12-16T09:21:24.503Z,100089.72
2018-12-16T09:23:53.918Z,100083.88
2018-12-16T09:26:23.256Z,100084.72
2018-12-16T09:28:52.715Z,100091.61
2018-12-16T09:31:21.825Z,100097.64
2018-12-16T09:33:50.960Z,100097.23
2018-12-16T09:36:20.230Z,100101.84
2018-12-16T09:38:49.804Z,100094.66
2018-12-16T09:41:18.999Z,100091.67
2018-12-16T09:43:48.072Z,100089.17
2018-12-16T09:46:17.358Z,100097.30
2018-12-16T09:48:46.732Z,100102.92
2018-12-16T09:51:16.021Z,100099.78
2018-12-16T09:53:45.631Z,100096.39
2018-12-16T09:56:14.888Z,100093.92
2018-12-16T09:58:44.319Z,100087.70
2018-12-16T10:01:14.136Z,100086.51
2018-12-16T10:03:43.810Z,100093.16
2018-12-16T10:06:13.467Z,100091.63
2018-12-16T10:08:43.128Z,100088.20
2018-12-16T10:11:12.225Z,100087.53
2018-12-16T10:13:41.363Z,100085.30
2018-12-16T10:16:10.584Z,100093.21
2018-12-16T10:18:39.905Z,100087.20
2018-12-16T10:21:08.962Z,100080.35
2018-12-16T10:23:38.172Z,100085.09
2018-12-16T10:26:07.456Z,100089.64
2018-12-16T10:28:37.301Z,100085.63
2018-12-16T10:31:06.477Z,100080.94
2018-12-16T10:33:35.873Z,100081.08
2018-12-16T10:36:05.055Z,100082.39
2018-12-16T10:38:34.388Z,100078.28
2018-12-16T10:41:03.951Z,100073.23
2018-12-16T10:43:33.032Z,100080.93
2018-12-16T10:46:02.478Z,100083.44
2018-12-16T10:48:31.751Z,100085.19
2018-12-16T10:51:01.115Z,100082.89
2018-12-16T10:53:30.479Z,100080.34
2018-12-16T10:56:00.104Z,100081.15
2018-12-16T10:58:29.498Z,100065.80
2018-12-16T11:01:03.683Z,100056.77
2018-12-16T11:03:33.097Z,100049.12
2018-12-16T11:06:02.228Z,100053.83
2018-12-16T11:08:31.690Z,100048.95
2018-12-16T11:11:01.005Z,100056.08
2018-12-16T11:13:30.314Z,100066.09
2018-12-16T11:15:59.831Z,100068.03
2018-12-16T11:18:29.994Z,100055.83
2018-12-16T11:20:59.252Z,100058.66
2018-12-16T11:23:28.587Z,100060.75
2018-12-16T11:25:58.576Z,100054.52
2018-12-16T11:28:27.673Z,100056.84
2018-12-16T11:30:57.107Z,100064.52
2018-12-16T11:33:26.491Z,100052.97
2018-12-16T11:35:55.871Z,100055.67
2018-12-16T11:38:25.096Z,100065.97
2018-12-16T11:40:54.637Z,100058.84
2018-12-16T11:43:24.051Z,100063.45
2018-12-16T11:45:53.336Z,100051.06
2018-12-16T11:48:23.285Z,100057.97
2018-12-16T11:50:52.935Z,100051.61
2018-12-16T11:53:22.219Z,100053.21
2018-12-16T11:55:51.750Z,100043.70
2018-12-16T11:58:21.117Z,100039.56
2018-12-16T12:00:50.436Z,100044.00
2018-12-16T12:03:20.426Z,100037.77
2018-12-16T12:05:49.860Z,100042.80
2018-12-16T12:08:19.049Z,100042.14
2018-12-16T12:10:48.340Z,100043.94
2018-12-16T12:13:17.621Z,100050.69
2018-12-16T12:15:46.820Z,100045.00
2018-12-16T12:18:15.943Z,100030.42
2018-12-16T12:20:45.301Z,100029.52
2018-12-16T12:23:14.591Z,100033.44
2018-12-16T12:25:44.112Z,100031.02
2018-12-16T12:28:13.711Z,100028.62
2018-12-16T12:30:42.936Z,100030.44
2018-12-16T12:33:12.344Z,100018.54
2018-12-16T12:35:41.631Z,100013.83
2018-12-16T12:38:10.888Z,100014.31
2018-12-16T12:40:40.102Z,100023.75
2018-12-16T12:43:09.347Z,100024.71
2018-12-16T12:45:38.458Z,100024.92
2018-12-16T12:48:07.890Z,100017.36
2018-12-16T12:50:36.983Z,100024.40
2018-12-16T12:53:06.120Z,100024.25
2018-12-16T12:55:35.428Z,100029.08
2018-12-16T12:58:04.825Z,100027.44
2018-12-16T13:00:34.226Z,100027.41
2018-12-16T13:03:03.545Z,100019.64
2018-12-16T13:05:37.025Z,100020.98
2018-12-16T13:08:04.110Z,100020.28
2018-12-16T13:10:33.352Z,100028.05
2018-12-16T13:13:02.837Z,100026.48
2018-12-16T13:15:32.057Z,100023.87
2018-12-16T13:18:01.155Z,100029.21
2018-12-16T13:20:30.671Z,100025.16
2018-12-16T13:23:00.240Z,100020.29
2018-12-16T13:25:40.498Z,100022.81
2018-12-16T13:28:09.882Z,100027.13
2018-12-16T13:30:39.401Z,100037.62
2018-12-16T13:33:09.059Z,100039.52
2018-12-16T13:35:38.821Z,100037.92
2018-12-16T13:38:08.533Z,100038.59
2018-12-16T13:40:38.024Z,100044.56
2018-12-16T13:43:07.404Z,100040.50
2018-12-16T13:45:36.894Z,100038.98
2018-12-16T13:48:06.296Z,100044.82
2018-12-16T13:50:35.506Z,100043.37
2018-12-16T13:53:04.732Z,100040.13
2018-12-16T13:55:40.608Z,100046.70
2018-12-16T13:58:05.325Z,100047.37
2018-12-16T14:00:34.651Z,100045.50
2018-12-16T14:03:03.838Z,100046.16
2018-12-16T14:05:33.300Z,100042.48
2018-12-16T14:08:02.549Z,100049.20
2018-12-16T14:10:31.737Z,100052.59
2018-12-16T14:13:00.943Z,100052.77
2018-12-16T14:15:30.134Z,100050.25
2018-12-16T14:17:59.400Z,100052.56
2018-12-16T14:20:28.726Z,100054.58
2018-12-16T14:22:58.053Z,100064.78
2018-12-16T14:25:27.278Z,100066.80
2018-12-16T14:27:56.391Z,100061.09
2018-12-16T14:30:25.750Z,100059.56
2018-12-16T14:32:54.868Z,100061.12
2018-12-16T14:35:24.346Z,100062.62
2018-12-16T14:37:53.611Z,100062.77
2018-12-16T14:40:22.728Z,100060.83
2018-12-16T14:42:52.068Z,100062.14
2018-12-16T14:45:21.404Z,100066.19
2018-12-16T14:47:50.723Z,100068.80
2018-12-16T14:50:19.985Z,100075.52
2018-12-16T14:52:49.128Z,100071.34
2018-12-16T14:55:18.336Z,100073.22
2018-12-16T14:57:47.637Z,100060.31
2018-12-16T15:00:17.092Z,100060.22
2018-12-16T15:02:46.441Z,100064.06
2018-12-16T15:05:15.719Z,100071.89
2018-12-16T15:07:44.834Z,100070.48
2018-12-16T15:10:17.206Z,100077.48
2018-12-16T15:12:46.480Z,100083.79
2018-12-16T15:15:16.504Z,100085.13
2018-12-16T15:17:45.660Z,100079.57
2018-12-16T15:20:14.847Z,100085.73
2018-12-16T15:22:44.128Z,100087.52
2018-12-16T15:25:13.640Z,100089.55
2018-12-16T15:27:43.033Z,100088.16
2018-12-16T15:30:12.190Z,100092.42
2018-12-16T15:32:41.511Z,100096.88
2018-12-16T15:35:10.989Z,100096.97
2018-12-16T15:37:40.156Z,100098.16
2018-12-16T15:40:09.744Z,100091.33
2018-12-16T15:42:39.155Z,100087.27
2018-12-16T15:45:10.078Z,100097.57
2018-12-16T15:47:39.488Z,100097.20
2018-12-16T15:50:09.640Z,100092.55
2018-12-16T15:52:38.863Z,100092.89
2018-12-16T15:55:10.303Z,100093.33
2018-12-16T15:57:39.764Z,100098.66
2018-12-16T16:00:10.620Z,100101.14
2018-12-16T16:02:39.763Z,100113.16
2018-12-16T16:05:09.084Z,100103.08
2018-12-16T16:07:38.409Z,100117.45
2018-12-16T16:10:08.865Z,100115.30
2018-12-16T16:12:38.123Z,100123.11
2018-12-16T16:15:08.130Z,100117.63
2018-12-16T16:17:37.660Z,100128.76
2018-12-16T16:20:06.812Z,100122.42
2018-12-16T16:22:36.056Z,100115.92
2018-12-16T16:25:05.580Z,100136.39
2018-12-16T16:27:34.760Z,100142.84
2018-12-16T16:30:03.999Z,100147.83
2018-12-16T16:32:33.403Z,100151.48
2018-12-16T16:35:02.780Z,100154.83
2018-12-16T16:37:32.692Z,100150.67
2018-12-16T16:40:02.052Z,100155.33
2018-12-16T16:42:31.154Z,100157.23
2018-12-16T16:45:00.583Z,100155.78
2018-12-16T16:47:30.195Z,100162.83
2018-12-16T16:49:59.355Z,100164.97
2018-12-16T16:52:28.589Z,100168.96
2018-12-16T16:54:57.857Z,100171.09
2018-12-16T16:57:27.220Z,100176.55
2018-12-16T16:59:56.470Z,100168.53
2018-12-16T17:02:25.927Z,100173.91
2018-12-16T17:04:54.963Z,100168.45
2018-12-16T17:07:24.382Z,100174.31
2018-12-16T17:09:55.464Z,100182.92
2018-12-16T17:12:24.706Z,100185.81
2018-12-16T17:14:57.151Z,100173.45
2018-12-16T17:17:26.386Z,100191.52
2018-12-16T17:19:55.695Z,100206.99
2018-12-16T17:22:25.012Z,100204.69
2018-12-16T17:24:54.176Z,100199.30
2018-12-16T17:27:23.240Z,100192.55
2018-12-16T17:29:52.435Z,100192.53
2018-12-16T17:32:21.897Z,100197.61
2018-12-16T17:34:51.151Z,100194.14
2018-12-16T17:37:20.534Z,100197.43
2018-12-16T17:39:49.803Z,100192.31
2018-12-16T17:42:19.140Z,100197.09
2018-12-16T17:44:48.274Z,100197.95
2018-12-16T17:47:17.544Z,100198.55
2018-12-16T17:49:46.683Z,100197.43
2018-12-16T17:52:16.036Z,100189.03
2018-12-16T17:54:45.200Z,100197.16
2018-12-16T17:57:14.309Z,100192.84
2018-12-16T17:59:43.569Z,100190.63
2018-12-16T18:02:12.708Z,100190.63
2018-12-16T18:04:42.119Z,100191.61
2018-12-16T18:07:11.431Z,100196.12
2018-12-16T18:09:40.780Z,100195.74
2018-12-16T18:12:10.059Z,100189.44
2018-12-16T18:14:39.312Z,100195.96
2018-12-16T18:17:09.671Z,100188.25
2018-12-16T18:19:38.989Z,100191.35
2018-12-16T18:22:13.958Z,100199.25
2018-12-16T18:24:39.466Z,100198.15
2018-12-16T18:27:08.746Z,100199.72
2018-12-16T18:29:38.036Z,100198.62
2018-12-16T18:32:07.339Z,100203.10
2018-12-16T18:34:36.869Z,100210.72
2018-12-16T18:37:05.993Z,100214.48
2018-12-16T18:39:35.460Z,100204.14
2018-12-16T18:42:04.801Z,100201.31
2018-12-16T18:44:34.033Z,100209.69
2018-12-16T18:47:03.282Z,100210.06
2018-12-16T18:49:32.680Z,100212.03
2018-12-16T18:52:01.851Z,100216.73
2018-12-16T18:54:31.270Z,100224.36
2018-12-16T18:57:06.982Z,100224.26
2018-12-16T18:59:31.998Z,100225.11
2018-12-16T19:02:01.621Z,100219.84
2018-12-16T19:04:30.742Z,100220.78
2018-12-16T19:06:59.995Z,100220.69
2018-12-16T19:09:29.127Z,100228.59
2018-12-16T19:11:58.552Z,100225.13
2018-12-16T19:14:28.155Z,100223.63
2018-12-16T19:16:57.535Z,100219.12
2018-12-16T19:19:28.103Z,100227.77
2018-12-16T19:21:57.356Z,100231.62
2018-12-16T19:24:26.520Z,100227.39
2018-12-16T19:26:58.437Z,100235.10
2018-12-16T19:29:27.084Z,100233.03
2018-12-16T19:31:56.527Z,100231.65
2018-12-16T19:34:25.679Z,100231.45
2018-12-16T19:36:54.887Z,100231.65
2018-12-16T19:39:24.142Z,100232.09
2018-12-16T19:41:53.352Z,100231.88
2018-12-16T19:44:22.542Z,100231.33
2018-12-16T19:46:51.920Z,100232.44
2018-12-16T19:49:21.116Z,100232.02
2018-12-16T19:51:50.292Z,100233.02
2018-12-16T19:54:19.587Z,100231.05
2018-12-16T19:56:48.641Z,100232.05
2018-12-16T19:59:17.625Z,100225.41
2018-12-16T20:01:46.968Z,100226.95
2018-12-16T20:04:19.579Z,100229.24
2018-12-16T20:06:49.080Z,100229.05
2018-12-16T20:09:21.311Z,100226.80
2018-12-16T20:11:50.518Z,100231.69
2018-12-16T20:14:19.777Z,100229.63
2018-12-16T20:16:48.952Z,100232.88
2018-12-16T20:19:18.280Z,100233.41
2018-12-16T20:21:47.412Z,100233.86
2018-12-16T20:24:16.699Z,100238.00
2018-12-16T20:26:45.887Z,100243.38
2018-12-16T20:29:15.011Z,100236.16
2018-12-16T20:31:44.221Z,100241.11
2018-12-16T20:34:13.344Z,100243.57
2018-12-16T20:36:42.616Z,100238.36
2018-12-16T20:39:12.010Z,100249.19
2018-12-16T20:41:41.113Z,100253.94
2018-12-16T20:44:10.264Z,100240.12
2018-12-16T20:46:39.410Z,100251.52
2018-12-16T20:49:08.640Z,100249.14
2018-12-16T20:51:37.715Z,100250.45
2018-12-16T20:54:07.652Z,100244.00
2018-12-16T20:56:36.775Z,100249.55
2018-12-16T20:59:05.919Z,100249.37
2018-12-16T21:01:35.174Z,100259.18
2018-12-16T21:04:04.468Z,100256.58
2018-12-16T21:06:33.623Z,100256.67
2018-12-16T21:09:02.919Z,100258.64
2018-12-16T21:11:37.071Z,100259.70
2018-12-16T21:14:11.251Z,100257.07
2018-12-16T21:16:45.553Z,100258.66
2018-12-16T21:19:15.449Z,100261.72
2018-12-16T21:21:44.921Z,100261.73
2018-12-16T21:24:14.258Z,100268.36
2018-12-16T21:26:43.868Z,100268.98
2018-12-16T21:29:12.976Z,100265.97
2018-12-16T21:31:42.795Z,100271.36
2018-12-16T21:34:12.356Z,100279.10
2018-12-16T21:36:41.495Z,100283.53
2018-12-16T21:39:10.679Z,100274.75
2018-12-16T21:41:41.797Z,100275.03
2018-12-16T21:44:10.820Z,100268.55
2018-12-16T21:46:39.952Z,100271.23
2018-12-16T21:49:08.987Z,100271.46
2018-12-16T21:51:38.612Z,100270.14
2018-12-16T21:54:07.924Z,100281.52
2018-12-16T21:56:37.072Z,100287.91
2018-12-16T21:59:06.320Z,100280.58
2018-12-16T22:01:35.315Z,100283.45
2018-12-16T22:04:04.445Z,100288.34
2018-12-16T22:06:33.585Z,100281.97
2018-12-16T22:09:02.755Z,100294.95
2018-12-16T22:11:32.164Z,100299.59
2018-12-16T22:14:02.437Z,100293.74
2018-12-16T22:16:31.564Z,100301.64
2018-12-16T22:19:01.642Z,100301.84
2018-12-16T22:21:31.361Z,100304.52
2018-12-16T22:24:00.682Z,100308.94
2018-12-16T22:26:29.779Z,100314.02
2018-12-16T22:28:59.051Z,100328.21
2018-12-16T22:31:28.363Z,100325.95
2018-12-16T22:33:57.364Z,100331.69
2018-12-16T22:36:26.462Z,100332.45
2018-12-16T22:38:55.664Z,100330.75
2018-12-16T22:41:25.043Z,100328.03
2018-12-16T22:43:54.680Z,100340.25
2018-12-16T22:46:23.653Z,100343.63
2018-12-16T22:48:52.841Z,100339.31
2018-12-16T22:51:22.464Z,100338.93
2018-12-16T22:53:52.390Z,100338.66
2018-12-16T22:56:21.908Z,100338.94
2018-12-16T22:58:54.317Z,100334.04
2018-12-16T23:01:22.671Z,100334.80
2018-12-16T23:03:51.804Z,100329.72
2018-12-16T23:06:21.144Z,100333.84
2018-12-16T23:08:50.728Z,100333.48
2018-12-16T23:11:20.276Z,100335.73
2018-12-16T23:13:49.481Z,100333.48
2018-12-16T23:16:18.805Z,100337.71
2018-12-16T23:18:48.241Z,100347.22
2018-12-16T23:21:17.553Z,100334.46
2018-12-16T23:23:46.971Z,100335.97
2018-12-16T23:26:17.880Z,100340.77
2018-12-16T23:28:47.191Z,100341.61
2018-12-16T23:31:16.393Z,100341.61
2018-12-16T23:33:45.525Z,100339.55
2018-12-16T23:36:14.680Z,100341.23
2018-12-16T23:38:43.800Z,100339.45
2018-12-16T23:41:13.118Z,100337.95
2018-12-16T23:43:42.225Z,100342.13
2018-12-16T23:46:11.355Z,100334.78
2018-12-16T23:48:40.513Z,100339.58
2018-12-16T23:51:10.011Z,100337.14
2018-12-16T23:53:39.337Z,100329.52
2018-12-16T23:56:08.449Z,100325.84
2018-12-16T23:58:37.655Z,100326.72
